createdAt,value
2023-09-24T00:01:08.646Z,99473.22
2023-09-24T00:03:35.217Z,99479.88
2023-09-24T00:06:01.768Z,99476.34
2023-09-24T00:08:28.223Z,99481.38
2023-09-24T00:10:54.712Z,99473.47
2023-09-24T00:13:21.124Z,99483.69
2023-09-24T00:15:47.526Z,99471.88
2023-09-24T00:18:14.014Z,99469.81
2023-09-24T00:20:40.600Z,99477.28
2023-09-24T00:23:07.111Z,99476.03
2023-09-24T00:25:33.530Z,99479.94
2023-09-24T00:27:59.945Z,99488.53
2023-09-24T00:30:26.479Z,99497.16
2023-09-24T00:32:53.007Z,99493.94
2023-09-24T00:35:19.527Z,99503.34
2023-09-24T00:37:45.945Z,99508.72
2023-09-24T00:40:12.431Z,99511.03
2023-09-24T00:42:38.819Z,99518.84
2023-09-24T00:45:05.231Z,99516.41
2023-09-24T00:47:31.691Z,99515.97
2023-09-24T00:49:58.141Z,99520.69
2023-09-24T00:52:24.573Z,99533.97
2023-09-24T00:54:50.967Z,99531.13
2023-09-24T00:57:17.402Z,99547.63
2023-09-24T00:59:43.813Z,99553.47
2023-09-24T01:02:10.292Z,99547.50
2023-09-24T01:04:36.863Z,99550.59
2023-09-24T01:07:03.279Z,99549.00
2023-09-24T01:09:29.677Z,99558.38
2023-09-24T01:11:56.213Z,99560.34
2023-09-24T01:14:22.658Z,99557.94
2023-09-24T01:16:49.395Z,99553.59
2023-09-24T01:19:16.011Z,99568.50
2023-09-24T01:21:42.510Z,99572.38
2023-09-24T01:24:09.069Z,99579.03
2023-09-24T01:26:35.517Z,99568.38
2023-09-24T01:29:01.920Z,99570.31
2023-09-24T01:31:28.327Z,99575.81
2023-09-24T01:33:57.297Z,99572.63
2023-09-24T01:36:23.771Z,99566.66
2023-09-24T01:38:50.203Z,99569.41
2023-09-24T01:41:16.606Z,99565.75
2023-09-24T01:43:42.993Z,99577.31
2023-09-24T01:46:09.445Z,99582.69
2023-09-24T01:48:35.963Z,99579.50
2023-09-24T01:51:02.462Z,99580.31
2023-09-24T01:53:28.930Z,99577.09
2023-09-24T01:55:55.364Z,99594.38
2023-09-24T01:58:21.826Z,99591.19
2023-09-24T02:00:48.281Z,99601.91
2023-09-24T02:03:14.724Z,99608.19
2023-09-24T02:05:41.184Z,99596.41
2023-09-24T02:08:07.663Z,99600.97
2023-09-24T02:10:34.031Z,99594.22
2023-09-24T02:13:00.466Z,99598.47
2023-09-24T02:15:26.876Z,99602.47
2023-09-24T02:17:53.384Z,99611.72
2023-09-24T02:20:19.874Z,99605.09
2023-09-24T02:22:46.270Z,99605.44
2023-09-24T02:25:12.669Z,99599.63
2023-09-24T02:27:39.085Z,99607.84
2023-09-24T02:30:05.649Z,99614.16
2023-09-24T02:32:32.174Z,99608.97
2023-09-24T02:34:58.656Z,99610.13
2023-09-24T02:37:25.099Z,99613.69
2023-09-24T02:39:52.715Z,99616.44
2023-09-24T02:42:19.172Z,99616.78
2023-09-24T02:44:45.700Z,99617.56
2023-09-24T02:47:12.081Z,99615.28
2023-09-24T02:49:38.492Z,99625.34
2023-09-24T02:52:04.884Z,99613.56
2023-09-24T02:54:31.298Z,99618.25
2023-09-24T02:56:57.756Z,99621.34
2023-09-24T02:59:24.260Z,99623.28
2023-09-24T03:01:50.878Z,99629.13
2023-09-24T03:04:17.557Z,99620.44
2023-09-24T03:06:44.151Z,99626.38
2023-09-24T03:09:10.581Z,99631.88
2023-09-24T03:11:37.168Z,99624.75
2023-09-24T03:14:03.578Z,99629.78
2023-09-24T03:16:30.062Z,99624.66
2023-09-24T03:18:56.571Z,99625.66
2023-09-24T03:21:22.967Z,99630.47
2023-09-24T03:23:49.640Z,99633.91
2023-09-24T03:26:16.535Z,99640.22
2023-09-24T03:28:43.090Z,99651.53
2023-09-24T03:31:09.601Z,99646.38
2023-09-24T03:33:36.090Z,99652.19
2023-09-24T03:36:02.586Z,99657.69
2023-09-24T03:38:29.154Z,99663.19
2023-09-24T03:40:55.615Z,99676.44
2023-09-24T03:43:22.105Z,99673.72
2023-09-24T03:45:48.589Z,99671.31
2023-09-24T03:48:15.100Z,99654.84
2023-09-24T03:50:41.639Z,99665.03
2023-09-24T03:53:08.094Z,99666.13
2023-09-24T03:55:34.495Z,99661.81
2023-09-24T03:58:00.903Z,99667.63
2023-09-24T04:00:27.330Z,99664.88
2023-09-24T04:02:53.960Z,99672.31
2023-09-24T04:05:20.450Z,99667.97
2023-09-24T04:07:47.009Z,99669.44
2023-09-24T04:10:13.424Z,99674.94
2023-09-24T04:12:39.812Z,99685.44
2023-09-24T04:15:06.243Z,99690.13
2023-09-24T04:17:32.800Z,99689.22
2023-09-24T04:19:59.240Z,99689.53
2023-09-24T04:22:25.655Z,99688.25
2023-09-24T04:24:52.064Z,99695.72
2023-09-24T04:27:18.441Z,99706.25
2023-09-24T04:29:44.873Z,99709.31
2023-09-24T04:32:11.326Z,99706.09
2023-09-24T04:34:37.750Z,99730.00
2023-09-24T04:37:04.196Z,99727.59
2023-09-24T04:39:30.616Z,99740.84
2023-09-24T04:41:57.024Z,99748.28
2023-09-24T04:44:23.438Z,99751.34
2023-09-24T04:46:49.830Z,99756.84
2023-09-24T04:49:16.478Z,99757.19
2023-09-24T04:51:43.168Z,99753.66
2023-09-24T04:54:09.605Z,99766.53
2023-09-24T04:56:36.049Z,99768.50
2023-09-24T04:59:02.445Z,99764.94
2023-09-24T05:01:28.830Z,99766.91
2023-09-24T05:03:55.660Z,99772.38
2023-09-24T05:06:22.384Z,99757.84
2023-09-24T05:08:48.795Z,99758.97
2023-09-24T05:11:15.247Z,99753.84
2023-09-24T05:13:41.686Z,99753.84
2023-09-24T05:16:08.057Z,99743.97
2023-09-24T05:18:34.560Z,99749.47
2023-09-24T05:21:01.070Z,99744.28
2023-09-24T05:23:27.536Z,99745.44
2023-09-24T05:25:54.050Z,99754.00
2023-09-24T05:28:20.492Z,99749.66
2023-09-24T05:30:46.925Z,99761.75
2023-09-24T05:33:13.433Z,99758.56
2023-09-24T05:35:39.880Z,99756.13
2023-09-24T05:38:06.282Z,99760.81
2023-09-24T05:40:32.726Z,99758.75
2023-09-24T05:42:59.269Z,99769.59
2023-09-24T05:45:25.667Z,99768.81
2023-09-24T05:47:52.147Z,99783.63
2023-09-24T05:50:18.579Z,99782.81
2023-09-24T05:52:44.965Z,99787.50
2023-09-24T05:55:11.536Z,99773.25
2023-09-24T05:57:37.982Z,99797.56
2023-09-24T06:00:04.488Z,99795.13
2023-09-24T06:02:38.503Z,99804.50
2023-09-24T06:05:05.096Z,99798.53
2023-09-24T06:07:31.501Z,99800.13
2023-09-24T06:09:57.884Z,99798.84
2023-09-24T06:12:24.331Z,99770.38
2023-09-24T06:14:50.752Z,99800.34
2023-09-24T06:17:17.145Z,99797.91
2023-09-24T06:19:43.650Z,99806.47
2023-09-24T06:22:10.017Z,99808.41
2023-09-24T06:24:36.466Z,99804.84
2023-09-24T06:27:02.921Z,99802.47
2023-09-24T06:29:29.391Z,99818.13
2023-09-24T06:31:55.898Z,99812.63
2023-09-24T06:34:22.302Z,99822.78
2023-09-24T06:36:48.717Z,99823.13
2023-09-24T06:39:15.217Z,99824.25
2023-09-24T06:41:41.984Z,99826.16
2023-09-24T06:44:08.406Z,99830.06
2023-09-24T06:46:34.819Z,99831.19
2023-09-24T06:49:01.325Z,99832.81
2023-09-24T06:51:27.758Z,99832.31
2023-09-24T06:53:54.228Z,99833.47
2023-09-24T06:56:20.677Z,99837.34
2023-09-24T06:58:47.113Z,99839.59
2023-09-24T07:01:13.641Z,99843.50
2023-09-24T07:03:40.232Z,99849.28
2023-09-24T07:06:06.871Z,99856.09
2023-09-24T07:08:33.386Z,99861.88
2023-09-24T07:10:59.789Z,99859.47
2023-09-24T07:13:26.225Z,99858.81
2023-09-24T07:15:55.444Z,99863.97
2023-09-24T07:18:21.890Z,99860.28
2023-09-24T07:20:48.336Z,99866.25
2023-09-24T07:23:14.781Z,99872.53
2023-09-24T07:25:41.213Z,99870.59
2023-09-24T07:28:07.602Z,99877.22
2023-09-24T07:30:34.039Z,99879.63
2023-09-24T07:33:00.571Z,99889.31
2023-09-24T07:35:26.969Z,99889.31
2023-09-24T07:37:53.401Z,99895.94
2023-09-24T07:40:19.827Z,99893.97
2023-09-24T07:42:46.217Z,99895.63
2023-09-24T07:45:12.637Z,99908.50
2023-09-24T07:47:39.142Z,99903.84
2023-09-24T07:50:05.610Z,99909.63
2023-09-24T07:52:32.001Z,99908.50
2023-09-24T07:54:58.409Z,99916.72
2023-09-24T07:57:24.789Z,99917.88
2023-09-24T07:59:51.236Z,99920.75
2023-09-24T08:02:17.645Z,99923.34
2023-09-24T08:04:44.056Z,99928.84
2023-09-24T08:07:10.561Z,99930.78
2023-09-24T08:09:36.978Z,99939.94
2023-09-24T08:12:03.411Z,99935.75
2023-09-24T08:14:29.851Z,99934.97
2023-09-24T08:16:56.402Z,99936.91
2023-09-24T08:19:22.872Z,99936.91
2023-09-24T08:21:49.427Z,99939.31
2023-09-24T08:24:15.942Z,99936.91
2023-09-24T08:26:42.469Z,99946.06
2023-09-24T08:29:08.970Z,99940.28
2023-09-24T08:31:35.687Z,99943.69
2023-09-24T08:34:02.413Z,99939.31
2023-09-24T08:36:28.810Z,99940.59
2023-09-24T08:38:55.234Z,99942.88
2023-09-24T08:41:21.634Z,99941.41
2023-09-24T08:43:48.646Z,99942.22
2023-09-24T08:46:15.223Z,99941.56
2023-09-24T08:48:42.184Z,99936.53
2023-09-24T08:51:08.883Z,99937.34
2023-09-24T08:53:35.372Z,99943.66
2023-09-24T08:56:01.987Z,99946.06
2023-09-24T08:58:28.386Z,99937.84
2023-09-24T09:00:54.802Z,99943.16
2023-09-24T09:03:21.261Z,99945.56
2023-09-24T09:05:47.746Z,99946.84
2023-09-24T09:08:14.230Z,99952.47
2023-09-24T09:10:40.661Z,99945.88
2023-09-24T09:13:07.091Z,99939.91
2023-09-24T09:15:33.501Z,99944.25
2023-09-24T09:17:59.969Z,99934.91
2023-09-24T09:20:26.385Z,99932.97
2023-09-24T09:22:52.819Z,99939.72
2023-09-24T09:25:19.213Z,99922.94
2023-09-24T09:27:45.616Z,99920.19
2023-09-24T09:30:12.084Z,99922.63
2023-09-24T09:32:38.673Z,99920.69
2023-09-24T09:35:05.141Z,99915.53
2023-09-24T09:37:33.884Z,99915.97
2023-09-24T09:40:01.297Z,99909.03
2023-09-24T09:42:27.702Z,99914.22
2023-09-24T09:44:54.140Z,99912.72
2023-09-24T09:47:20.599Z,99915.16
2023-09-24T09:49:47.001Z,99906.25
2023-09-24T09:52:13.446Z,99916.59
2023-09-24T09:54:39.901Z,99923.69
2023-09-24T09:57:06.377Z,99915.44
2023-09-24T09:59:32.949Z,99911.56
2023-09-24T10:01:59.406Z,99910.13
2023-09-24T10:04:25.803Z,99931.72
2023-09-24T10:06:52.212Z,99919.63
2023-09-24T10:09:18.665Z,99918.19
2023-09-24T10:11:45.117Z,99926.09
2023-09-24T10:14:11.563Z,99923.84
2023-09-24T10:16:38.043Z,99923.19
2023-09-24T10:19:04.476Z,99933.81
2023-09-24T10:21:30.906Z,99923.31
2023-09-24T10:23:57.378Z,99930.75
2023-09-24T10:26:23.800Z,99928.47
2023-09-24T10:28:50.528Z,99933.63
2023-09-24T10:31:17.150Z,99939.94
2023-09-24T10:33:43.585Z,99936.53
2023-09-24T10:36:10.108Z,99938.66
2023-09-24T10:38:36.626Z,99949.44
2023-09-24T10:41:03.081Z,99941.38
2023-09-24T10:43:29.472Z,99948.81
2023-09-24T10:45:57.226Z,99942.94
2023-09-24T10:48:35.952Z,99946.19
2023-09-24T10:51:10.254Z,99952.16
2023-09-24T10:53:36.929Z,99946.19
2023-09-24T10:56:11.647Z,99954.25
2023-09-24T10:58:38.649Z,99950.88
2023-09-24T11:01:05.184Z,99955.84
2023-09-24T11:03:31.805Z,99949.38
2023-09-24T11:05:58.332Z,99944.84
2023-09-24T11:08:24.767Z,99948.34
2023-09-24T11:10:51.158Z,99957.25
2023-09-24T11:13:17.601Z,99954.81
2023-09-24T11:15:44.076Z,99948.97
2023-09-24T11:18:10.625Z,99943.16
2023-09-24T11:20:37.114Z,99942.50
2023-09-24T11:23:03.513Z,99944.91
2023-09-24T11:25:29.971Z,99944.91
2023-09-24T11:27:56.379Z,99942.94
2023-09-24T11:30:22.886Z,99940.19
2023-09-24T11:32:49.440Z,99939.09
2023-09-24T11:35:15.920Z,99942.31
2023-09-24T11:37:42.375Z,99938.06
2023-09-24T11:40:08.833Z,99934.19
2023-09-24T11:42:35.210Z,99931.09
2023-09-24T11:45:01.679Z,99927.25
2023-09-24T11:47:28.103Z,99926.91
2023-09-24T11:49:54.511Z,99928.16
2023-09-24T11:52:20.956Z,99933.00
2023-09-24T11:54:47.346Z,99920.41
2023-09-24T11:57:13.789Z,99925.56
2023-09-24T11:59:40.291Z,99920.06
2023-09-24T12:02:06.728Z,99926.03
2023-09-24T12:04:33.226Z,99918.28
2023-09-24T12:06:59.649Z,99921.47
2023-09-24T12:09:26.094Z,99922.75
2023-09-24T12:11:52.636Z,99916.59
2023-09-24T12:14:19.048Z,99918.25
2023-09-24T12:16:45.533Z,99915.94
2023-09-24T12:19:11.937Z,99912.88
2023-09-24T12:21:38.337Z,99918.81
2023-09-24T12:24:04.774Z,99907.03
2023-09-24T12:26:31.189Z,99914.59
2023-09-24T12:28:57.585Z,99913.47
2023-09-24T12:31:24.005Z,99917.47
2023-09-24T12:33:50.545Z,99910.50
2023-09-24T12:36:17.024Z,99903.88
2023-09-24T12:38:43.534Z,99906.75
2023-09-24T12:41:09.993Z,99911.91
2023-09-24T12:43:36.372Z,99919.47
2023-09-24T12:46:02.839Z,99918.34
2023-09-24T12:48:29.512Z,99914.13
2023-09-24T12:50:56.024Z,99922.03
2023-09-24T12:53:22.433Z,99919.75
2023-09-24T12:55:48.836Z,99921.69
2023-09-24T12:58:15.240Z,99922.97
2023-09-24T13:00:41.627Z,99930.56
2023-09-24T13:03:08.196Z,99916.31
2023-09-24T13:05:34.691Z,99923.91
2023-09-24T13:08:01.117Z,99925.19
2023-09-24T13:10:27.504Z,99930.31
2023-09-24T13:12:53.910Z,99935.50
2023-09-24T13:15:20.370Z,99929.66
2023-09-24T13:17:46.906Z,99929.31
2023-09-24T13:20:13.356Z,99923.47
2023-09-24T13:22:39.782Z,99936.22
2023-09-24T13:25:06.192Z,99936.69
2023-09-24T13:27:33.928Z,99943.00
2023-09-24T13:30:02.006Z,99934.06
2023-09-24T13:32:28.466Z,99928.56
2023-09-24T13:34:55.040Z,99929.84
2023-09-24T13:37:21.447Z,99932.22
2023-09-24T13:39:47.843Z,99922.38
2023-09-24T13:42:14.315Z,99923.19
2023-09-24T13:44:40.758Z,99914.94
2023-09-24T13:47:07.197Z,99915.28
2023-09-24T13:49:33.715Z,99908.94
2023-09-24T13:52:00.241Z,99905.88
2023-09-24T13:54:26.735Z,99901.66
2023-09-24T13:56:53.333Z,99902.91
2023-09-24T13:59:19.781Z,99900.16
2023-09-24T14:01:46.235Z,99909.22
2023-09-24T14:04:12.717Z,99909.81
2023-09-24T14:06:39.200Z,99909.44
2023-09-24T14:09:05.630Z,99899.25
2023-09-24T14:11:32.032Z,99907.97
2023-09-24T14:13:58.446Z,99912.34
2023-09-24T14:16:24.870Z,99907.31
2023-09-24T14:18:51.367Z,99903.41
2023-09-24T14:21:17.855Z,99898.75
2023-09-24T14:23:44.262Z,99899.06
2023-09-24T14:26:10.705Z,99897.91
2023-09-24T14:28:37.179Z,99897.91
2023-09-24T14:31:03.715Z,99894.34
2023-09-24T14:33:30.217Z,99899.53
2023-09-24T14:35:56.737Z,99901.13
2023-09-24T14:38:23.216Z,99902.41
2023-09-24T14:40:49.615Z,99900.44
2023-09-24T14:43:16.011Z,99908.03
2023-09-24T14:45:42.416Z,99906.06
2023-09-24T14:48:08.965Z,99906.91
2023-09-24T14:50:35.406Z,99907.69
2023-09-24T14:53:01.818Z,99893.56
2023-09-24T14:55:28.214Z,99891.63
2023-09-24T14:57:57.071Z,99910.88
2023-09-24T15:00:24.883Z,99894.38
2023-09-24T15:02:51.482Z,99899.09
2023-09-24T15:05:18.156Z,99895.19
2023-09-24T15:07:44.568Z,99897.97
2023-09-24T15:10:10.984Z,99900.72
2023-09-24T15:12:37.480Z,99905.06
2023-09-24T15:15:03.896Z,99907.00
2023-09-24T15:17:30.318Z,99902.31
2023-09-24T15:19:56.802Z,99910.56
2023-09-24T15:22:23.213Z,99909.41
2023-09-24T15:24:49.596Z,99919.63
2023-09-24T15:27:16.071Z,99914.47
2023-09-24T15:29:42.529Z,99925.13
2023-09-24T15:32:09.000Z,99919.63
2023-09-24T15:34:35.473Z,99923.53
2023-09-24T15:37:01.930Z,99920.78
2023-09-24T15:39:28.358Z,99924.31
2023-09-24T15:41:54.888Z,99924.31
2023-09-24T15:44:21.354Z,99924.31
2023-09-24T15:46:47.737Z,99918.03
2023-09-24T15:49:14.222Z,99920.41
2023-09-24T15:51:40.633Z,99923.16
2023-09-24T15:54:07.068Z,99927.53
2023-09-24T15:56:33.554Z,99933.84
2023-09-24T15:58:59.967Z,99930.31
2023-09-24T16:01:26.420Z,99929.16
2023-09-24T16:03:52.967Z,99932.69
2023-09-24T16:06:19.542Z,99938.19
2023-09-24T16:08:46.131Z,99938.19
2023-09-24T16:11:12.621Z,99938.56
2023-09-24T16:13:38.998Z,99936.59
2023-09-24T16:16:05.442Z,99944.88
2023-09-24T16:18:31.916Z,99948.75
2023-09-24T16:20:58.398Z,99940.84
2023-09-24T16:23:24.841Z,99938.09
2023-09-24T16:25:51.230Z,99936.50
2023-09-24T16:28:17.637Z,99943.13
2023-09-24T16:30:44.068Z,99941.53
2023-09-24T16:33:10.646Z,99948.97
2023-09-24T16:35:37.139Z,99952.84
2023-09-24T16:38:03.545Z,99954.50
2023-09-24T16:40:29.992Z,99954.00
2023-09-24T16:42:56.375Z,99953.09
2023-09-24T16:45:23.059Z,99962.84
2023-09-24T16:47:49.553Z,99959.28
2023-09-24T16:50:16.015Z,99956.84
2023-09-24T16:52:42.458Z,99965.59
2023-09-24T16:55:08.855Z,99964.44
2023-09-24T16:57:35.285Z,99978.06
2023-09-24T17:00:01.808Z,99967.88
2023-09-24T17:02:28.447Z,99976.47
2023-09-24T17:04:54.999Z,99970.97
2023-09-24T17:07:21.567Z,99980.34
2023-09-24T17:09:47.978Z,99979.66
2023-09-24T17:12:14.420Z,99982.41
2023-09-24T17:14:40.863Z,99994.22
2023-09-24T17:17:07.262Z,99993.44
2023-09-24T17:19:33.646Z,100006.38
2023-09-24T17:22:00.066Z,100000.09
2023-09-24T17:24:26.640Z,100009.50
2023-09-24T17:26:53.239Z,100009.50
2023-09-24T17:29:21.470Z,100010.47
2023-09-24T17:31:48.179Z,99999.81
2023-09-24T17:34:14.647Z,100012.28
2023-09-24T17:36:41.078Z,100019.28
2023-09-24T17:39:07.552Z,100021.22
2023-09-24T17:41:34.006Z,100020.75
2023-09-24T17:44:00.412Z,100020.75
2023-09-24T17:46:26.927Z,100035.66
2023-09-24T17:48:53.428Z,100029.69
2023-09-24T17:51:19.960Z,100030.81
2023-09-24T17:53:46.551Z,100045.72
2023-09-24T17:56:13.019Z,100035.84
2023-09-24T17:58:39.409Z,100048.00
2023-09-24T18:01:05.918Z,100053.81
2023-09-24T18:03:32.461Z,100053.34
2023-09-24T18:05:59.021Z,100057.72
2023-09-24T18:08:25.489Z,100059.34
2023-09-24T18:10:51.865Z,100067.59
2023-09-24T18:13:18.240Z,100061.28
2023-09-24T18:15:44.673Z,100059.66
2023-09-24T18:18:11.128Z,100064.03
2023-09-24T18:20:37.586Z,100056.91
2023-09-24T18:23:04.114Z,100062.41
2023-09-24T18:25:30.506Z,100069.84
2023-09-24T18:27:56.942Z,100062.41
2023-09-24T18:30:23.354Z,100072.28
2023-09-24T18:32:49.880Z,100086.34
2023-09-24T18:35:16.290Z,100079.25
2023-09-24T18:37:42.709Z,100079.25
2023-09-24T18:40:09.236Z,100073.75
2023-09-24T18:42:35.704Z,100071.81
2023-09-24T18:45:02.188Z,100076.16
2023-09-24T18:47:28.620Z,100067.47
2023-09-24T18:49:55.062Z,100063.91
2023-09-24T18:52:21.483Z,100071.00
2023-09-24T18:54:47.892Z,100065.81
2023-09-24T18:57:14.334Z,100067.47
2023-09-24T18:59:40.747Z,100065.69
2023-09-24T19:02:07.239Z,100066.50
2023-09-24T19:04:33.817Z,100068.78
2023-09-24T19:07:00.466Z,100061.66
2023-09-24T19:09:26.945Z,100067.16
2023-09-24T19:11:53.392Z,100069.13
2023-09-24T19:14:19.948Z,100071.88
2023-09-24T19:16:46.332Z,100071.06
2023-09-24T19:19:12.713Z,100077.72
2023-09-24T19:21:39.174Z,100072.66
2023-09-24T19:24:05.693Z,100075.28
2023-09-24T19:26:32.145Z,100077.91
2023-09-24T19:28:58.584Z,100083.22
2023-09-24T19:31:24.985Z,100077.91
2023-09-24T19:33:52.778Z,100085.34
2023-09-24T19:36:21.088Z,100084.22
2023-09-24T19:38:47.511Z,100080.97
2023-09-24T19:41:13.940Z,100074.69
2023-09-24T19:43:40.386Z,100078.56
2023-09-24T19:46:06.995Z,100075.63
2023-09-24T19:48:33.857Z,100072.41
2023-09-24T19:51:00.349Z,100072.53
2023-09-24T19:53:26.786Z,100065.09
2023-09-24T19:55:53.377Z,100070.59
2023-09-24T19:58:19.775Z,100077.56
2023-09-24T20:00:46.193Z,100077.91
2023-09-24T20:03:12.669Z,100074.81
2023-09-24T20:05:39.126Z,100072.06
2023-09-24T20:08:05.547Z,100062.06
2023-09-24T20:10:31.946Z,100060.47
2023-09-24T20:12:58.371Z,100060.13
2023-09-24T20:15:26.048Z,100061.94
2023-09-24T20:17:52.504Z,100058.72
2023-09-24T20:20:18.959Z,100060.97
2023-09-24T20:22:45.367Z,100066.34
2023-09-24T20:25:11.770Z,100063.59
2023-09-24T20:27:38.182Z,100056.81
2023-09-24T20:30:04.555Z,100060.31
2023-09-24T20:32:31.017Z,100061.13
2023-09-24T20:34:57.399Z,100059.50
2023-09-24T20:37:23.799Z,100061.13
2023-09-24T20:39:50.200Z,100074.06
2023-09-24T20:42:16.621Z,100070.19
2023-09-24T20:44:43.055Z,100068.25
2023-09-24T20:47:09.470Z,100077.66
2023-09-24T20:49:35.891Z,100079.25
2023-09-24T20:52:02.331Z,100076.16
2023-09-24T20:54:29.360Z,100075.34
2023-09-24T20:56:55.789Z,100080.84
2023-09-24T20:59:22.228Z,100082.78
2023-09-24T21:01:48.722Z,100088.63
2023-09-24T21:04:15.108Z,100085.88
2023-09-24T21:06:41.583Z,100083.13
2023-09-24T21:09:08.042Z,100083.47
2023-09-24T21:11:34.462Z,100086.53
2023-09-24T21:14:00.849Z,100084.59
2023-09-24T21:16:27.262Z,100082.97
2023-09-24T21:18:53.743Z,100083.78
2023-09-24T21:21:20.231Z,100085.28
2023-09-24T21:23:46.807Z,100078.94
2023-09-24T21:26:13.221Z,100076.19
2023-09-24T21:28:39.613Z,100069.09
2023-09-24T21:31:06.028Z,100071.84
2023-09-24T21:33:32.542Z,100074.59
2023-09-24T21:35:59.134Z,100071.84
2023-09-24T21:38:25.588Z,100074.59
2023-09-24T21:40:51.976Z,100066.34
2023-09-24T21:43:18.366Z,100065.19
2023-09-24T21:45:44.757Z,100073.44
2023-09-24T21:48:11.295Z,100071.03
2023-09-24T21:50:37.784Z,100069.91
2023-09-24T21:53:04.164Z,100072.66
2023-09-24T21:55:30.564Z,100080.09
2023-09-24T21:57:56.993Z,100082.03
2023-09-24T22:00:23.434Z,100084.00
2023-09-24T22:02:50.028Z,100080.44
2023-09-24T22:05:16.915Z,100090.59
2023-09-24T22:07:43.476Z,100080.91
2023-09-24T22:10:09.864Z,100081.25
2023-09-24T22:12:36.324Z,100093.34
2023-09-24T22:15:02.811Z,100089.50
2023-09-24T22:17:29.317Z,100088.69
2023-09-24T22:19:55.784Z,100090.59
2023-09-24T22:22:22.176Z,100079.63
2023-09-24T22:24:48.595Z,100080.75
2023-09-24T22:27:15.497Z,100078.34
2023-09-24T22:29:41.917Z,100076.41
2023-09-24T22:32:08.337Z,100078.69
2023-09-24T22:34:34.746Z,100080.94
2023-09-24T22:37:01.138Z,100075.00
2023-09-24T22:39:27.646Z,100077.75
2023-09-24T22:41:54.137Z,100082.41
2023-09-24T22:44:20.523Z,100084.72
2023-09-24T22:46:46.944Z,100079.22
2023-09-24T22:49:13.341Z,100079.22
2023-09-24T22:51:39.771Z,100070.97
2023-09-24T22:54:06.274Z,100063.50
2023-09-24T22:56:32.693Z,100059.16
2023-09-24T22:58:59.097Z,100055.59
2023-09-24T23:01:25.649Z,100059.16
2023-09-24T23:03:52.258Z,100055.28
2023-09-24T23:06:18.779Z,100055.59
2023-09-24T23:08:45.220Z,100059.16
2023-09-24T23:11:11.629Z,100054.47
2023-09-24T23:13:38.086Z,100057.22
2023-09-24T23:16:04.544Z,100061.09
2023-09-24T23:18:31.007Z,100060.28
2023-09-24T23:20:57.481Z,100059.16
2023-09-24T23:23:23.896Z,100056.41
2023-09-24T23:25:50.297Z,100059.47
2023-09-24T23:28:16.725Z,100056.72
2023-09-24T23:30:43.177Z,100057.53
2023-09-24T23:35:35.933Z,100070.47
2023-09-24T23:38:02.343Z,100069.69
2023-09-24T23:40:28.732Z,100063.69
2023-09-24T23:42:55.139Z,100074.38
2023-09-24T23:45:21.617Z,100067.25
2023-09-24T23:47:48.157Z,100057.41
2023-09-24T23:50:14.638Z,100060.16
2023-09-24T23:52:41.011Z,100056.13
2023-09-24T23:55:07.416Z,100063.25
2023-09-24T23:57:33.842Z,100061.97
